Pelican of London — MWAQ — position and weather

sailwx.info

Track history (hours):
 
Tides and Currents Weather Stations Pressure Air Temp Water Temp Dewpoint Dewpoint Depression Visibility Wind Speed Wind Dir Waves Ship Positions

Pelican of London

Ship's website: http://www.adventureundersail.com/

Last reported at 2017-Mar-12 19:20 UTC. Time now 2017-Mar-26 15:02 UTC.
Position N 51°41' W 002°33'.
Warning: this ship's position is 13 days out of date.

Length 35 m; draft 4.1 m.

Type: Sailing vessel. MMSI: 235057366.

Date/timePositionNaut miles runAvg speedWind from/ knotsBaromVisibWave heightAir tempDewpointWater temp
2017-Mar-12 19:20N 51°41' W 002°33'6 8.2
2017-Mar-12 18:33N 51°36' W 002°40'5 4.7
2017-Mar-12 17:34N 51°32' W 002°43'11 9.7
2017-Mar-12 16:24N 51°27' W 002°60'63 2.1
2017-Mar-11 10:33N 51°05' W 004°34'4 4.4
2017-Mar-11 09:33N 51°03' W 004°40'5 4.7
2017-Mar-11 08:33N 51°01' W 004°46'5 5.1
2017-Mar-11 07:33N 50°58' W 004°53'6 5.9
2017-Mar-11 06:33N 50°55' W 005°01'7 6.7
2017-Mar-11 05:33N 50°50' W 005°08'7 7.1
2017-Mar-11 04:33N 50°44' W 005°13'7 7.4
2017-Mar-11 03:33N 50°38' W 005°20'8 7.7
2017-Mar-11 02:33N 50°33' W 005°30'8 7.5
2017-Mar-11 01:33N 50°28' W 005°39'7 7.2
2017-Mar-11 00:33N 50°23' W 005°47'7 6.7
2017-Mar-10 23:31N 50°17' W 005°53'10 7.2
2017-Mar-10 22:07N 50°07' W 005°50'4 6.4
2017-Mar-10 21:33N 50°04' W 005°51'43 4.3
2017-Mar-10 11:32N 50°00' W 004°44'8 6.9
2017-Mar-10 10:18N 50°02' W 004°31'5 6.7
2017-Mar-10 09:33N 50°03' W 004°24'7 6.5
2017-Mar-10 08:33N 50°05' W 004°14'6 6.0
2017-Mar-10 07:33N 50°06' W 004°05'6 5.2
2017-Mar-10 06:22N 50°07' W 003°55'4 4.9
2017-Mar-10 05:33N 50°07' W 003°49'4 4.3
2017-Mar-10 04:33N 50°09' W 003°43'4 4.3
2017-Mar-10 03:31N 50°10' W 003°36'5 4.8
2017-Mar-10 02:33N 50°10' W 003°29'5 5.3
2017-Mar-10 01:33N 50°13' W 003°22'7 6.5
2017-Mar-10 00:33N 50°19' W 003°17'6 6.3
2017-Mar-09 23:33N 50°23' W 003°11'7 6.8
2017-Mar-09 22:33N 50°23' W 002°60'6 5.8
2017-Mar-09 21:32N 50°25' W 002°51'5 5.4
2017-Mar-09 20:33N 50°25' W 002°43'5 4.8
2017-Mar-09 19:32N 50°26' W 002°35'4 3.8
2017-Mar-09 18:33N 50°25' W 002°29'  
Track history (hours):
 
Tides and Currents Weather Stations Pressure Air Temp Water Temp Dewpoint Dewpoint Depression Visibility Wind Speed Wind Dir Waves Ship Positions

Pelican of London

Ship's website: http://www.adventureundersail.com/

Last reported at 2017-Mar-12 19:20 UTC. Time now 2017-Mar-26 15:02 UTC.
Position N 51°41' W 002°33'.
Warning: this ship's position is 13 days out of date.

Length 35 m; draft 4.1 m.

Type: Sailing vessel. MMSI: 235057366.

Date/timePositionNaut miles runAvg speedWind from/ knotsBaromVisibWave heightAir tempDewpointWater temp
2017-Mar-12 19:20N 51°41' W 002°33'6 8.2
2017-Mar-12 18:33N 51°36' W 002°40'5 4.7
2017-Mar-12 17:34N 51°32' W 002°43'11 9.7
2017-Mar-12 16:24N 51°27' W 002°60'63 2.1
2017-Mar-11 10:33N 51°05' W 004°34'4 4.4
2017-Mar-11 09:33N 51°03' W 004°40'5 4.7
2017-Mar-11 08:33N 51°01' W 004°46'5 5.1
2017-Mar-11 07:33N 50°58' W 004°53'6 5.9
2017-Mar-11 06:33N 50°55' W 005°01'7 6.7
2017-Mar-11 05:33N 50°50' W 005°08'7 7.1
2017-Mar-11 04:33N 50°44' W 005°13'7 7.4
2017-Mar-11 03:33N 50°38' W 005°20'8 7.7
2017-Mar-11 02:33N 50°33' W 005°30'8 7.5
2017-Mar-11 01:33N 50°28' W 005°39'7 7.2
2017-Mar-11 00:33N 50°23' W 005°47'7 6.7
2017-Mar-10 23:31N 50°17' W 005°53'10 7.2
2017-Mar-10 22:07N 50°07' W 005°50'4 6.4
2017-Mar-10 21:33N 50°04' W 005°51'43 4.3
2017-Mar-10 11:32N 50°00' W 004°44'8 6.9
2017-Mar-10 10:18N 50°02' W 004°31'5 6.7
2017-Mar-10 09:33N 50°03' W 004°24'7 6.5
2017-Mar-10 08:33N 50°05' W 004°14'6 6.0
2017-Mar-10 07:33N 50°06' W 004°05'6 5.2
2017-Mar-10 06:22N 50°07' W 003°55'4 4.9
2017-Mar-10 05:33N 50°07' W 003°49'4 4.3
2017-Mar-10 04:33N 50°09' W 003°43'4 4.3
2017-Mar-10 03:31N 50°10' W 003°36'5 4.8
2017-Mar-10 02:33N 50°10' W 003°29'5 5.3
2017-Mar-10 01:33N 50°13' W 003°22'7 6.5
2017-Mar-10 00:33N 50°19' W 003°17'6 6.3
2017-Mar-09 23:33N 50°23' W 003°11'7 6.8
2017-Mar-09 22:33N 50°23' W 002°60'6 5.8
2017-Mar-09 21:32N 50°25' W 002°51'5 5.4
2017-Mar-09 20:33N 50°25' W 002°43'5 4.8
2017-Mar-09 19:32N 50°26' W 002°35'4 3.8
2017-Mar-09 18:33N 50°25' W 002°29'  

Dump ship's entire track history